createdAt,value
2019-06-18T00:01:40.654Z,55.10
2019-06-18T00:04:10.930Z,54.70
2019-06-18T00:06:40.830Z,55.40
2019-06-18T00:09:10.858Z,55.50
2019-06-18T00:11:40.927Z,56.70
2019-06-18T00:14:11.022Z,56.20
2019-06-18T00:16:41.453Z,56.60
2019-06-18T00:19:10.754Z,56.80
2019-06-18T00:21:41.470Z,57.60
2019-06-18T00:24:10.726Z,57.60
2019-06-18T00:26:41.761Z,59.10
2019-06-18T00:29:11.003Z,59.10
2019-06-18T00:31:40.702Z,59.00
2019-06-18T00:34:11.246Z,59.60
2019-06-18T00:36:40.533Z,59.80
2019-06-18T00:39:09.439Z,60.30
2019-06-18T00:41:38.341Z,61.70
2019-06-18T00:44:07.982Z,62.10
2019-06-18T00:46:37.199Z,62.20
2019-06-18T00:49:07.273Z,63.00
2019-06-18T00:51:37.422Z,64.20
2019-06-18T00:54:06.989Z,63.90
2019-06-18T00:56:37.371Z,64.60
2019-06-18T00:59:07.639Z,64.40
2019-06-18T01:01:38.315Z,64.50
2019-06-18T01:04:07.328Z,65.30
2019-06-18T01:06:38.216Z,65.70
2019-06-18T01:09:08.105Z,66.40
2019-06-18T01:11:37.913Z,67.10
2019-06-18T01:14:07.744Z,67.80
2019-06-18T01:16:38.746Z,68.80
2019-06-18T01:19:07.489Z,69.50
2019-06-18T01:21:38.196Z,70.10
2019-06-18T01:24:06.917Z,70.30
2019-06-18T01:26:35.757Z,70.30
2019-06-18T01:29:05.308Z,70.30
2019-06-18T01:31:34.086Z,70.40
2019-06-18T01:34:03.232Z,70.90
2019-06-18T01:36:32.978Z,72.20
2019-06-18T01:39:02.592Z,71.30
2019-06-18T01:41:32.700Z,72.00
2019-06-18T01:44:03.227Z,72.00
2019-06-18T01:46:38.343Z,73.20
2019-06-18T01:49:03.278Z,73.00
2019-06-18T01:51:33.430Z,74.10
2019-06-18T01:54:02.766Z,74.50
2019-06-18T01:56:32.624Z,74.30
2019-06-18T01:59:02.541Z,73.90
2019-06-18T02:01:32.351Z,74.30
2019-06-18T02:04:03.339Z,74.30
2019-06-18T02:06:33.125Z,73.50
2019-06-18T02:09:02.895Z,73.40
2019-06-18T02:11:33.439Z,73.70
2019-06-18T02:14:03.675Z,74.80
2019-06-18T02:16:37.239Z,74.80
2019-06-18T02:19:03.522Z,75.20
2019-06-18T02:21:33.243Z,75.30
2019-06-18T02:24:02.848Z,74.10
2019-06-18T02:26:33.323Z,73.80
2019-06-18T02:29:02.839Z,74.50
2019-06-18T02:31:35.056Z,75.50
2019-06-18T02:34:03.775Z,75.60
2019-06-18T02:36:33.069Z,76.00
2019-06-18T02:39:02.947Z,75.30
2019-06-18T02:41:32.926Z,75.60
2019-06-18T02:44:02.645Z,76.00
2019-06-18T02:46:32.778Z,75.80
2019-06-18T02:49:02.622Z,76.20
2019-06-18T02:51:32.611Z,76.50
2019-06-18T02:54:02.971Z,77.70
2019-06-18T02:56:33.229Z,79.20
2019-06-18T02:59:03.178Z,80.00
2019-06-18T03:01:37.333Z,79.70
2019-06-18T03:04:06.259Z,80.10
2019-06-18T03:06:35.307Z,80.60
2019-06-18T03:09:07.120Z,80.90
2019-06-18T03:11:36.017Z,80.90
2019-06-18T03:14:05.565Z,80.60
2019-06-18T03:16:34.540Z,80.60
2019-06-18T03:19:03.642Z,80.50
2019-06-18T03:21:33.061Z,80.50
2019-06-18T03:24:02.598Z,80.30
2019-06-18T03:26:32.891Z,80.40
2019-06-18T03:29:02.527Z,80.00
2019-06-18T03:31:34.941Z,79.30
2019-06-18T03:34:05.668Z,80.40
2019-06-18T03:36:33.439Z,79.70
2019-06-18T03:39:02.750Z,79.70
2019-06-18T03:41:32.376Z,74.90
2019-06-18T03:44:03.134Z,77.00
2019-06-18T03:46:33.258Z,77.20
2019-06-18T03:49:02.880Z,76.30
2019-06-18T03:51:33.300Z,76.00
2019-06-18T03:54:03.222Z,76.10
2019-06-18T03:56:33.277Z,74.70
2019-06-18T03:59:02.783Z,74.60
2019-06-18T04:01:38.310Z,72.90
2019-06-18T04:04:07.278Z,70.70
2019-06-18T04:06:36.066Z,70.90
2019-06-18T04:09:06.569Z,71.00
2019-06-18T04:11:35.379Z,70.20
2019-06-18T04:14:04.490Z,68.90
2019-06-18T04:16:33.315Z,68.50
2019-06-18T04:19:03.351Z,68.70
2019-06-18T04:21:33.063Z,68.00
2019-06-18T04:24:03.150Z,67.40
2019-06-18T04:26:33.328Z,67.40
2019-06-18T04:29:03.472Z,65.10
2019-06-18T04:31:33.094Z,65.10
2019-06-18T04:34:02.998Z,65.30
2019-06-18T04:36:33.309Z,64.60
2019-06-18T04:39:02.868Z,62.80
2019-06-18T04:41:32.950Z,64.10
2019-06-18T04:44:04.025Z,64.10
2019-06-18T04:46:33.206Z,61.40
2019-06-18T04:49:03.866Z,54.10
2019-06-18T04:51:32.818Z,53.60
2019-06-18T04:54:03.206Z,47.10
2019-06-18T04:56:33.292Z,48.10
2019-06-18T04:59:03.215Z,44.30
2019-06-18T05:01:33.033Z,40.20
2019-06-18T05:04:03.588Z,40.60
2019-06-18T05:06:33.124Z,33.60
2019-06-18T05:09:03.209Z,33.60
2019-06-18T05:11:34.021Z,34.40
2019-06-18T05:14:03.065Z,32.40
2019-06-18T05:16:32.532Z,31.20
2019-06-18T05:19:03.969Z,27.70
2019-06-18T05:21:32.381Z,28.60
2019-06-18T05:24:02.932Z,28.20
2019-06-18T05:26:32.685Z,27.10
2019-06-18T05:29:02.971Z,21.50
2019-06-18T05:31:33.822Z,19.30
2019-06-18T05:34:03.033Z,18.80
2019-06-18T05:36:32.750Z,18.70
2019-06-18T05:39:03.235Z,18.60
2019-06-18T05:41:32.771Z,18.80
2019-06-18T05:44:02.995Z,19.50
2019-06-18T05:46:32.986Z,14.60
2019-06-18T05:49:03.960Z,15.60
2019-06-18T05:51:33.353Z,11.90
2019-06-18T05:54:03.243Z,14.30
2019-06-18T05:56:33.844Z,13.00
2019-06-18T05:59:03.544Z,11.80
2019-06-18T06:01:33.696Z,10.40
2019-06-18T06:04:02.747Z,10.10
2019-06-18T06:06:32.987Z,11.70
2019-06-18T06:09:02.953Z,8.30
2019-06-18T06:11:32.988Z,7.70
2019-06-18T06:14:03.287Z,8.20
2019-06-18T06:16:33.649Z,4.80
2019-06-18T06:19:13.493Z,3.80
2019-06-18T06:21:33.763Z,3.50
2019-06-18T06:24:03.053Z,2.70
2019-06-18T06:26:33.296Z,2.60
2019-06-18T06:29:03.370Z,2.70
2019-06-18T06:31:32.462Z,1.40
2019-06-18T06:34:02.969Z,1.00
2019-06-18T06:36:33.445Z,1.00
2019-06-18T06:39:03.759Z,1.00
2019-06-18T06:41:33.027Z,1.00
2019-06-18T06:44:02.918Z,1.00
2019-06-18T06:46:33.437Z,1.00
2019-06-18T06:49:02.898Z,1.00
2019-06-18T06:51:32.700Z,1.00
2019-06-18T06:54:03.353Z,1.00
2019-06-18T06:56:33.028Z,1.00
2019-06-18T06:59:03.354Z,1.00
2019-06-18T07:01:32.898Z,1.00
2019-06-18T07:04:03.168Z,1.00
2019-06-18T07:06:32.725Z,1.00
2019-06-18T07:09:03.177Z,1.00
2019-06-18T07:11:33.950Z,1.00
2019-06-18T07:14:03.075Z,1.00
2019-06-18T07:16:33.676Z,1.00
2019-06-18T07:19:02.942Z,1.00
2019-06-18T07:21:32.965Z,1.00
2019-06-18T07:24:03.045Z,1.00
2019-06-18T07:26:33.999Z,1.00
2019-06-18T07:29:03.324Z,1.00
2019-06-18T07:31:33.058Z,1.00
2019-06-18T07:34:04.859Z,1.00
2019-06-18T07:36:33.269Z,1.00
2019-06-18T07:39:02.909Z,1.00
2019-06-18T07:41:32.672Z,1.00
2019-06-18T07:44:02.516Z,1.00
2019-06-18T07:46:33.807Z,1.00
2019-06-18T07:49:02.871Z,1.00
2019-06-18T07:51:33.507Z,1.00
2019-06-18T07:54:03.857Z,1.00
2019-06-18T07:56:33.146Z,1.00
2019-06-18T07:59:02.558Z,1.00
2019-06-18T08:01:33.748Z,1.00
2019-06-18T08:04:03.165Z,1.00
2019-06-18T08:06:33.006Z,1.00
2019-06-18T08:09:03.303Z,1.00
2019-06-18T08:11:33.655Z,1.00
2019-06-18T08:14:03.292Z,1.00
2019-06-18T08:16:33.365Z,1.00
2019-06-18T08:19:02.963Z,1.00
2019-06-18T08:21:32.965Z,1.00
2019-06-18T08:24:03.549Z,1.00
2019-06-18T08:26:33.126Z,1.00
2019-06-18T08:29:02.949Z,1.00
2019-06-18T08:31:32.916Z,1.00
2019-06-18T08:34:03.482Z,1.00
2019-06-18T08:36:33.082Z,1.00
2019-06-18T08:39:03.233Z,1.00
2019-06-18T08:41:32.720Z,1.00
2019-06-18T08:44:03.651Z,1.00
2019-06-18T08:46:32.722Z,1.00
2019-06-18T08:49:02.829Z,1.00
2019-06-18T08:51:33.365Z,1.00
2019-06-18T08:54:02.834Z,1.00
2019-06-18T08:56:33.819Z,1.00
2019-06-18T08:59:02.950Z,1.00
2019-06-18T09:01:32.822Z,1.00
2019-06-18T09:04:03.732Z,1.00
2019-06-18T09:06:33.568Z,1.00
2019-06-18T09:09:03.171Z,1.00
2019-06-18T09:11:32.986Z,1.00
2019-06-18T09:14:02.721Z,1.00
2019-06-18T09:16:32.709Z,1.00
2019-06-18T09:19:02.887Z,1.00
2019-06-18T09:21:32.962Z,1.00
2019-06-18T09:24:03.768Z,1.00
2019-06-18T09:26:32.801Z,1.00
2019-06-18T09:29:02.673Z,1.00
2019-06-18T09:31:32.892Z,1.00
2019-06-18T09:34:02.606Z,1.00
2019-06-18T09:36:32.972Z,1.00
2019-06-18T09:39:02.844Z,1.00
2019-06-18T09:41:34.297Z,1.00
2019-06-18T09:44:03.508Z,1.00
2019-06-18T09:46:33.386Z,1.00
2019-06-18T09:49:03.058Z,1.00
2019-06-18T09:51:33.216Z,1.00
2019-06-18T09:54:02.763Z,1.00
2019-06-18T09:56:33.339Z,1.00
2019-06-18T09:59:02.749Z,1.00
2019-06-18T10:01:33.627Z,1.00
2019-06-18T10:04:02.707Z,1.00
2019-06-18T10:06:32.680Z,1.00
2019-06-18T10:09:03.212Z,1.00
2019-06-18T10:11:33.690Z,1.00
2019-06-18T10:14:02.954Z,1.00
2019-06-18T10:16:32.686Z,1.00
2019-06-18T10:19:03.730Z,1.00
2019-06-18T10:21:37.989Z,1.00
2019-06-18T10:24:02.620Z,1.00
2019-06-18T10:26:32.405Z,1.00
2019-06-18T10:29:21.538Z,1.00
2019-06-18T10:31:33.929Z,1.00
2019-06-18T10:34:03.127Z,1.00
2019-06-18T10:36:32.570Z,1.00
2019-06-18T10:39:02.890Z,1.00
2019-06-18T10:41:32.225Z,1.00
2019-06-18T10:44:02.596Z,1.00
2019-06-18T10:46:32.943Z,1.00
2019-06-18T10:49:16.967Z,1.00
2019-06-18T10:51:33.527Z,1.00
2019-06-18T10:54:03.968Z,1.00
2019-06-18T10:56:33.091Z,1.00
2019-06-18T10:59:02.964Z,1.00
2019-06-18T11:01:32.838Z,1.00
2019-06-18T11:04:03.791Z,1.00
2019-06-18T11:06:33.005Z,1.00
2019-06-18T11:09:02.736Z,1.00
2019-06-18T11:11:33.588Z,1.00
2019-06-18T11:14:11.373Z,1.00
2019-06-18T11:16:33.433Z,1.00
2019-06-18T11:19:02.625Z,1.00
2019-06-18T11:21:33.636Z,1.00
2019-06-18T11:24:03.966Z,1.00
2019-06-18T11:26:33.540Z,1.00
2019-06-18T11:29:03.043Z,1.00
2019-06-18T11:31:32.870Z,1.00
2019-06-18T11:34:03.249Z,1.00
2019-06-18T11:36:32.861Z,1.00
2019-06-18T11:39:03.807Z,1.00
2019-06-18T11:41:32.324Z,1.00
2019-06-18T11:44:03.450Z,1.00
2019-06-18T11:46:31.849Z,1.00
2019-06-18T11:49:03.185Z,1.00
2019-06-18T11:51:32.656Z,1.00
2019-06-18T11:54:03.688Z,1.00
2019-06-18T11:56:32.810Z,1.00
2019-06-18T11:59:02.642Z,1.00
2019-06-18T12:01:35.066Z,1.00
2019-06-18T12:04:03.942Z,1.00
2019-06-18T12:06:32.860Z,1.00
2019-06-18T12:09:02.818Z,1.00
2019-06-18T12:11:33.295Z,1.00
2019-06-18T12:14:04.249Z,1.00
2019-06-18T12:16:33.067Z,1.00
2019-06-18T12:19:03.717Z,1.00
2019-06-18T12:21:33.142Z,1.00
2019-06-18T12:24:04.041Z,1.00
2019-06-18T12:26:33.636Z,1.00
2019-06-18T12:29:03.555Z,1.00
2019-06-18T12:31:32.552Z,1.00
2019-06-18T12:34:03.504Z,1.00
2019-06-18T12:36:32.820Z,1.00
2019-06-18T12:39:03.294Z,1.00
2019-06-18T12:41:33.144Z,1.00
2019-06-18T12:44:02.909Z,1.00
2019-06-18T12:46:33.897Z,1.00
2019-06-18T12:49:03.223Z,1.00
2019-06-18T12:51:33.634Z,1.00
2019-06-18T12:54:09.269Z,1.00
2019-06-18T12:56:33.378Z,1.00
2019-06-18T12:59:20.693Z,1.00
2019-06-18T13:01:32.712Z,1.00
2019-06-18T13:04:02.559Z,1.00
2019-06-18T13:06:32.748Z,1.00
2019-06-18T13:09:03.422Z,1.00
2019-06-18T13:11:33.137Z,1.00
2019-06-18T13:14:04.077Z,1.00
2019-06-18T13:16:33.391Z,1.00
2019-06-18T13:19:03.578Z,1.00
2019-06-18T13:21:32.672Z,1.00
2019-06-18T13:24:02.795Z,1.00
2019-06-18T13:26:31.917Z,1.00
2019-06-18T13:29:03.099Z,1.00
2019-06-18T13:31:33.296Z,1.00
2019-06-18T13:34:02.902Z,1.00
2019-06-18T13:36:43.447Z,1.00
2019-06-18T13:39:02.943Z,1.00
2019-06-18T13:41:32.081Z,1.00
2019-06-18T13:44:00.916Z,1.00
2019-06-18T13:46:33.117Z,1.00
2019-06-18T13:49:03.018Z,1.00
2019-06-18T13:51:33.033Z,1.00
2019-06-18T13:54:01.599Z,1.00
2019-06-18T13:56:33.102Z,1.00
2019-06-18T13:59:03.198Z,1.00
2019-06-18T14:01:32.786Z,1.00
2019-06-18T14:04:03.677Z,1.00
2019-06-18T14:06:33.640Z,1.00
2019-06-18T14:09:03.050Z,1.00
2019-06-18T14:11:32.517Z,1.00
2019-06-18T14:14:02.876Z,1.00
2019-06-18T14:16:33.264Z,1.00
2019-06-18T14:19:02.725Z,1.00
2019-06-18T14:21:32.814Z,1.00
2019-06-18T14:24:04.780Z,1.00
2019-06-18T14:26:33.021Z,1.00
2019-06-18T14:29:03.343Z,1.00
2019-06-18T14:31:32.900Z,1.00
2019-06-18T14:34:03.230Z,1.00
2019-06-18T14:36:33.370Z,1.00
2019-06-18T14:39:05.515Z,1.00
2019-06-18T14:41:35.154Z,1.00
2019-06-18T14:44:04.442Z,1.00
2019-06-18T14:46:33.368Z,1.00
2019-06-18T14:49:03.462Z,1.00
2019-06-18T14:51:32.793Z,1.00
2019-06-18T14:54:20.834Z,1.00
2019-06-18T14:56:32.500Z,1.00
2019-06-18T14:59:02.877Z,1.00
2019-06-18T15:01:33.332Z,1.00
2019-06-18T15:04:02.499Z,1.00
2019-06-18T15:06:32.591Z,1.00
2019-06-18T15:09:03.304Z,1.00
2019-06-18T15:11:32.710Z,1.00
2019-06-18T15:14:01.714Z,1.00
2019-06-18T15:16:32.743Z,1.00
2019-06-18T15:19:03.333Z,1.00
2019-06-18T15:21:33.506Z,1.00
2019-06-18T15:24:02.233Z,1.00
2019-06-18T15:26:32.816Z,1.00
2019-06-18T15:29:02.556Z,1.00
2019-06-18T15:31:31.582Z,1.00
2019-06-18T15:34:00.443Z,1.00
2019-06-18T15:36:29.284Z,1.00
2019-06-18T15:38:58.187Z,1.00
2019-06-18T15:41:33.532Z,1.00
2019-06-18T15:44:03.023Z,1.00
2019-06-18T15:46:31.460Z,1.00
2019-06-18T15:49:03.654Z,1.00
2019-06-18T15:51:32.462Z,1.00
2019-06-18T15:54:03.435Z,1.00
2019-06-18T15:56:32.587Z,1.00
2019-06-18T15:59:03.721Z,1.00
2019-06-18T16:01:32.990Z,1.00
2019-06-18T16:04:02.730Z,1.00
2019-06-18T16:06:34.748Z,1.00
2019-06-18T16:09:04.229Z,1.00
2019-06-18T16:11:33.592Z,1.00
2019-06-18T16:14:03.310Z,1.00
2019-06-18T16:16:32.833Z,1.00
2019-06-18T16:19:03.358Z,1.00
2019-06-18T16:21:33.708Z,1.00
2019-06-18T16:24:03.052Z,1.00
2019-06-18T16:26:32.318Z,1.00
2019-06-18T16:29:02.617Z,1.00
2019-06-18T16:31:33.415Z,1.00
2019-06-18T16:34:03.181Z,1.00
2019-06-18T16:36:32.801Z,1.00
2019-06-18T16:39:03.467Z,1.00
2019-06-18T16:41:32.595Z,1.00
2019-06-18T16:44:02.758Z,1.00
2019-06-18T16:46:33.165Z,1.00
2019-06-18T16:49:03.627Z,1.00
2019-06-18T16:51:33.196Z,1.00
2019-06-18T16:54:03.568Z,1.00
2019-06-18T16:56:36.773Z,1.00
2019-06-18T16:59:08.609Z,1.00
2019-06-18T17:01:40.211Z,1.00
2019-06-18T17:04:12.909Z,1.00
2019-06-18T17:06:43.001Z,1.00
2019-06-18T17:09:16.513Z,1.00
2019-06-18T17:11:45.405Z,1.00
2019-06-18T17:14:17.552Z,1.00
2019-06-18T17:16:48.537Z,1.00
2019-06-18T17:19:17.705Z,1.00
2019-06-18T17:21:46.546Z,1.00
2019-06-18T17:24:15.499Z,1.00
2019-06-18T17:26:48.453Z,1.00
2019-06-18T17:29:18.544Z,1.00
2019-06-18T17:31:48.330Z,1.00
2019-06-18T17:34:17.778Z,1.00
2019-06-18T17:36:46.736Z,1.00
2019-06-18T17:39:18.653Z,1.00
2019-06-18T17:41:47.935Z,1.00
2019-06-18T17:44:16.685Z,1.00
2019-06-18T17:46:45.445Z,1.00
2019-06-18T17:49:14.438Z,1.00
2019-06-18T17:51:45.490Z,1.00
2019-06-18T17:54:16.719Z,1.00
2019-06-18T17:56:45.710Z,1.00
2019-06-18T17:59:16.081Z,1.00
2019-06-18T18:01:45.236Z,1.00
2019-06-18T18:04:14.226Z,1.00
2019-06-18T18:06:43.224Z,1.00
2019-06-18T18:09:14.048Z,1.00
2019-06-18T18:11:46.281Z,1.00
2019-06-18T18:14:15.356Z,1.00
2019-06-18T18:16:44.270Z,1.00
2019-06-18T18:19:33.969Z,1.00
2019-06-18T18:22:03.357Z,1.00
2019-06-18T18:24:33.355Z,1.00
2019-06-18T18:27:02.937Z,1.10
2019-06-18T18:29:32.805Z,1.50
2019-06-18T18:32:02.350Z,1.70
2019-06-18T18:34:32.690Z,1.80
2019-06-18T18:37:02.847Z,2.10
2019-06-18T18:39:32.620Z,2.30
2019-06-18T18:42:11.155Z,2.60
2019-06-18T18:44:48.544Z,2.80
2019-06-18T18:47:29.401Z,3.20
2019-06-18T18:50:12.895Z,3.50
2019-06-18T18:52:43.523Z,3.80
2019-06-18T18:55:13.696Z,4.40
2019-06-18T18:57:53.739Z,4.80
2019-06-18T19:00:48.260Z,5.50
2019-06-18T19:03:18.657Z,5.40
2019-06-18T19:05:58.747Z,6.20
2019-06-18T19:08:45.074Z,6.60
2019-06-18T19:11:22.059Z,7.10
2019-06-18T19:13:53.161Z,8.10
2019-06-18T19:16:33.035Z,8.20
2019-06-18T19:19:08.860Z,8.90
2019-06-18T19:21:44.634Z,9.40
2019-06-18T19:24:13.615Z,10.00
2019-06-18T19:26:52.985Z,10.50
2019-06-18T19:29:17.245Z,10.80
2019-06-18T19:31:56.832Z,11.10
2019-06-18T19:34:36.516Z,11.80
2019-06-18T19:37:27.979Z,12.30
2019-06-18T19:40:12.778Z,12.90
2019-06-18T19:42:52.841Z,13.50
2019-06-18T19:45:29.890Z,14.20
2019-06-18T19:48:03.164Z,15.00
2019-06-18T19:50:33.263Z,15.70
2019-06-18T19:53:03.757Z,15.70
2019-06-18T19:55:42.535Z,16.20
2019-06-18T19:58:26.088Z,16.70
2019-06-18T20:01:05.523Z,17.50
2019-06-18T20:03:45.283Z,17.80
2019-06-18T20:06:24.862Z,17.90
2019-06-18T20:09:07.678Z,18.10
2019-06-18T20:11:44.213Z,19.10
2019-06-18T20:14:24.239Z,19.10
2019-06-18T20:17:15.238Z,20.00
2019-06-18T20:19:55.146Z,20.00
2019-06-18T20:22:25.430Z,20.80
2019-06-18T20:25:42.680Z,20.90
2019-06-18T20:28:33.159Z,21.60
2019-06-18T20:31:08.411Z,22.10
2019-06-18T20:34:06.349Z,22.60
2019-06-18T20:36:46.373Z,23.70
2019-06-18T20:39:16.252Z,23.80
2019-06-18T20:42:21.972Z,24.00
2019-06-18T20:45:15.342Z,24.50
2019-06-18T20:47:59.143Z,25.70
2019-06-18T20:50:33.060Z,25.40
2019-06-18T20:53:12.890Z,26.80
2019-06-18T20:55:43.337Z,26.30
2019-06-18T20:58:26.578Z,26.40
2019-06-18T21:00:57.273Z,27.30
2019-06-18T21:03:32.867Z,29.70
2019-06-18T21:06:12.536Z,29.70
2019-06-18T21:08:49.192Z,30.80
2019-06-18T21:11:18.366Z,32.20
2019-06-18T21:13:55.516Z,32.80
2019-06-18T21:16:33.384Z,34.30
2019-06-18T21:22:03.005Z,37.80
2019-06-18T21:24:33.972Z,38.80
2019-06-18T21:27:14.935Z,39.10
2019-06-18T21:29:51.003Z,39.80
2019-06-18T21:32:27.272Z,40.10
2019-06-18T21:35:08.620Z,41.00
2019-06-18T21:37:37.870Z,41.20
2019-06-18T21:40:07.399Z,40.90
2019-06-18T21:42:51.523Z,41.30
2019-06-18T21:45:19.476Z,42.40
2019-06-18T21:47:48.207Z,42.90
2019-06-18T21:50:17.201Z,43.70
2019-06-18T21:52:45.986Z,44.90
2019-06-18T21:55:14.920Z,45.20
2019-06-18T21:57:43.722Z,45.90
2019-06-18T22:00:15.171Z,46.70
2019-06-18T22:02:44.037Z,47.10
2019-06-18T22:05:13.225Z,48.30
2019-06-18T22:07:43.943Z,50.40
2019-06-18T22:10:14.856Z,50.70
2019-06-18T22:12:45.595Z,52.50
2019-06-18T22:15:15.018Z,52.10
2019-06-18T22:17:44.020Z,52.80
2019-06-18T22:20:15.296Z,53.40
2019-06-18T22:22:44.438Z,53.90
2019-06-18T22:25:13.349Z,53.80
2019-06-18T22:27:42.664Z,54.00
2019-06-18T22:30:13.610Z,55.40
2019-06-18T22:32:43.217Z,56.40
2019-06-18T22:35:13.042Z,56.20
2019-06-18T22:37:43.206Z,57.40
2019-06-18T22:40:13.017Z,57.20
2019-06-18T22:42:42.749Z,57.80
2019-06-18T22:45:12.631Z,58.90
2019-06-18T22:47:43.052Z,59.00
2019-06-18T22:50:12.784Z,59.40
2019-06-18T22:52:42.556Z,59.10
2019-06-18T22:55:13.198Z,56.80
2019-06-18T22:57:42.622Z,57.70
2019-06-18T23:00:12.179Z,58.00
2019-06-18T23:02:43.023Z,57.70
2019-06-18T23:05:13.075Z,57.40
2019-06-18T23:07:43.020Z,56.80
2019-06-18T23:10:12.849Z,55.10
2019-06-18T23:12:43.280Z,55.40
2019-06-18T23:15:13.851Z,55.80
2019-06-18T23:17:43.088Z,55.60
2019-06-18T23:20:12.980Z,54.50
2019-06-18T23:22:43.255Z,50.90
2019-06-18T23:25:12.783Z,53.60
2019-06-18T23:27:43.395Z,55.10
2019-06-18T23:30:13.039Z,56.40
2019-06-18T23:32:43.024Z,56.50
2019-06-18T23:35:13.236Z,57.00
2019-06-18T23:37:44.070Z,57.50
2019-06-18T23:40:13.120Z,58.30
2019-06-18T23:42:43.924Z,58.10
2019-06-18T23:45:12.896Z,57.70
2019-06-18T23:47:42.842Z,59.00
2019-06-18T23:50:12.776Z,57.20
2019-06-18T23:52:41.624Z,57.50
2019-06-18T23:55:12.542Z,55.40
2019-06-18T23:57:41.001Z,57.20
